createdAt,value
2022-12-20T00:01:34.471Z,12.23
2022-12-20T00:04:03.719Z,13.75
2022-12-20T00:06:30.571Z,12.73
2022-12-20T00:08:59.831Z,11.90
2022-12-20T00:11:27.830Z,11.65
2022-12-20T00:13:55.038Z,11.68
2022-12-20T00:16:24.458Z,12.27
2022-12-20T00:18:52.789Z,11.73
2022-12-20T00:21:20.325Z,12.57
2022-12-20T00:23:47.030Z,11.82
2022-12-20T00:26:18.888Z,11.82
2022-12-20T00:28:45.665Z,12.25
2022-12-20T00:31:14.147Z,11.68
2022-12-20T00:33:41.807Z,11.07
2022-12-20T00:36:08.700Z,11.73
2022-12-20T00:38:35.575Z,10.60
2022-12-20T00:41:02.445Z,11.98
2022-12-20T00:43:29.489Z,10.65
2022-12-20T00:45:56.202Z,11.27
2022-12-20T00:48:23.308Z,12.43
2022-12-20T00:50:50.386Z,12.68
2022-12-20T00:53:22.709Z,11.75
2022-12-20T00:55:59.035Z,11.30
2022-12-20T00:58:26.698Z,11.32
2022-12-20T01:00:56.516Z,11.98
2022-12-20T01:03:25.125Z,11.55
2022-12-20T01:05:58.399Z,11.30
2022-12-20T01:08:27.127Z,11.52
2022-12-20T01:11:00.763Z,12.02
2022-12-20T01:13:30.739Z,10.77
2022-12-20T01:15:57.605Z,11.63
2022-12-20T01:18:24.378Z,11.05
2022-12-20T01:21:03.977Z,12.15
2022-12-20T01:23:31.102Z,11.00
2022-12-20T01:25:59.813Z,10.90
2022-12-20T01:28:27.498Z,11.38
2022-12-20T01:30:54.183Z,10.45
2022-12-20T01:33:20.995Z,10.93
2022-12-20T01:35:58.170Z,11.65
2022-12-20T01:38:25.083Z,11.30
2022-12-20T01:40:52.413Z,11.00
2022-12-20T01:43:20.156Z,10.68
2022-12-20T01:45:47.141Z,10.23
2022-12-20T01:48:26.039Z,10.82
2022-12-20T01:50:53.607Z,10.88
2022-12-20T01:53:22.018Z,11.02
2022-12-20T01:55:49.339Z,11.30
2022-12-20T01:58:19.007Z,10.82
2022-12-20T02:00:45.767Z,11.25
2022-12-20T02:03:15.381Z,10.98
2022-12-20T02:05:45.394Z,12.35
2022-12-20T02:08:14.004Z,10.85
2022-12-20T02:11:03.774Z,11.20
2022-12-20T02:13:36.656Z,10.93
2022-12-20T02:16:04.625Z,11.30
2022-12-20T02:18:31.947Z,11.30
2022-12-20T02:21:32.071Z,10.60
2022-12-20T02:24:10.327Z,10.30
2022-12-20T02:27:14.285Z,10.90
2022-12-20T02:30:14.583Z,10.35
2022-12-20T02:33:00.237Z,10.07
2022-12-20T02:35:33.763Z,10.57
2022-12-20T02:38:03.425Z,9.32
2022-12-20T02:40:35.468Z,10.13
2022-12-20T02:43:25.279Z,10.00
2022-12-20T02:45:57.077Z,10.50
2022-12-20T02:48:24.706Z,9.68
2022-12-20T02:50:54.024Z,10.82
2022-12-20T02:53:20.974Z,10.40
2022-12-20T02:56:14.218Z,10.57
2022-12-20T02:58:46.295Z,10.40
2022-12-20T03:01:30.962Z,9.65
2022-12-20T03:03:59.229Z,9.43
2022-12-20T03:06:30.931Z,10.27
2022-12-20T03:08:57.583Z,9.60
2022-12-20T03:11:24.291Z,11.13
2022-12-20T03:13:52.287Z,10.05
2022-12-20T03:16:19.051Z,10.30
2022-12-20T03:18:46.301Z,10.85
2022-12-20T03:21:13.039Z,10.00
2022-12-20T03:23:39.640Z,9.75
2022-12-20T03:26:06.322Z,9.43
2022-12-20T03:28:33.023Z,9.13
2022-12-20T03:30:59.878Z,9.52
2022-12-20T03:33:26.767Z,10.00
2022-12-20T03:35:53.528Z,9.73
2022-12-20T03:38:20.182Z,9.80
2022-12-20T03:40:47.015Z,10.05
2022-12-20T03:43:13.806Z,9.50
2022-12-20T03:45:40.497Z,9.43
2022-12-20T03:48:07.187Z,10.60
2022-12-20T03:50:34.834Z,9.13
2022-12-20T03:53:01.904Z,10.15
2022-12-20T03:55:28.726Z,9.25
2022-12-20T03:57:58.256Z,9.57
2022-12-20T04:00:25.118Z,9.75
2022-12-20T04:02:52.567Z,9.50
2022-12-20T04:05:19.774Z,8.52
2022-12-20T04:07:46.739Z,9.45
2022-12-20T04:10:13.640Z,10.18
2022-12-20T04:12:40.453Z,10.75
2022-12-20T04:15:08.211Z,9.30
2022-12-20T04:17:35.013Z,9.73
2022-12-20T04:20:20.480Z,10.43
2022-12-20T04:22:48.708Z,9.77
2022-12-20T04:25:17.063Z,10.07
2022-12-20T04:27:43.830Z,9.77
2022-12-20T04:30:11.561Z,8.98
2022-12-20T04:32:38.453Z,9.90
2022-12-20T04:35:05.623Z,10.68
2022-12-20T04:37:32.345Z,8.68
2022-12-20T04:39:59.131Z,9.30
2022-12-20T04:42:26.275Z,9.35
2022-12-20T04:44:52.998Z,8.98
2022-12-20T04:47:19.714Z,9.73
2022-12-20T04:49:46.568Z,8.55
2022-12-20T04:52:31.894Z,9.07
2022-12-20T04:54:58.698Z,10.55
2022-12-20T04:57:25.418Z,9.27
2022-12-20T04:59:54.089Z,10.65
2022-12-20T05:02:23.573Z,10.00
2022-12-20T05:04:50.385Z,9.52
2022-12-20T05:07:17.476Z,9.07
2022-12-20T05:09:44.161Z,9.82
2022-12-20T05:12:10.912Z,9.75
2022-12-20T05:14:37.750Z,8.98
2022-12-20T05:17:04.740Z,8.82
2022-12-20T05:19:31.720Z,7.50
2022-12-20T05:22:19.104Z,5.18
2022-12-20T05:25:04.431Z,3.97
2022-12-20T05:27:34.026Z,4.63
2022-12-20T05:30:00.745Z,6.32
2022-12-20T05:32:27.348Z,9.13
2022-12-20T05:34:54.270Z,8.43
2022-12-20T05:37:21.149Z,9.43
2022-12-20T05:39:51.252Z,9.55
2022-12-20T05:42:18.415Z,9.45
2022-12-20T05:44:45.217Z,9.68
2022-12-20T05:47:12.008Z,9.18
2022-12-20T05:49:38.824Z,9.52
2022-12-20T05:52:05.760Z,9.18
2022-12-20T05:54:32.900Z,9.80
2022-12-20T05:56:59.583Z,10.35
2022-12-20T05:59:26.431Z,8.77
2022-12-20T06:01:53.355Z,9.60
2022-12-20T06:04:23.231Z,9.93
2022-12-20T06:06:49.988Z,9.82
2022-12-20T06:09:16.701Z,9.82
2022-12-20T06:11:43.415Z,9.90
2022-12-20T06:14:10.459Z,10.50
2022-12-20T06:16:37.158Z,8.48
2022-12-20T06:19:04.250Z,8.63
2022-12-20T06:21:32.276Z,10.02
2022-12-20T06:23:58.917Z,10.77
2022-12-20T06:26:36.199Z,9.65
2022-12-20T06:29:04.855Z,9.90
2022-12-20T06:31:31.833Z,9.55
2022-12-20T06:33:58.633Z,10.15
2022-12-20T06:36:25.431Z,9.98
2022-12-20T06:38:52.554Z,10.32
2022-12-20T06:41:19.498Z,10.05
2022-12-20T06:43:46.351Z,10.68
2022-12-20T06:46:13.213Z,9.65
2022-12-20T06:48:40.086Z,10.05
2022-12-20T06:51:06.776Z,11.18
2022-12-20T06:53:33.400Z,10.35
2022-12-20T06:56:00.169Z,10.90
2022-12-20T06:58:26.962Z,10.73
2022-12-20T07:00:54.946Z,10.02
2022-12-20T07:03:21.664Z,10.10
2022-12-20T07:05:54.888Z,10.65
2022-12-20T07:08:22.612Z,10.05
2022-12-20T07:10:49.644Z,10.43
2022-12-20T07:13:16.342Z,10.65
2022-12-20T07:15:43.367Z,10.50
2022-12-20T07:18:10.506Z,9.70
2022-12-20T07:20:37.280Z,10.32
2022-12-20T07:23:04.428Z,10.48
2022-12-20T07:25:33.784Z,10.45
2022-12-20T07:28:00.691Z,11.55
2022-12-20T07:30:27.426Z,11.32
2022-12-20T07:32:54.285Z,13.60
2022-12-20T07:35:23.694Z,10.75
2022-12-20T07:37:52.719Z,10.57
2022-12-20T07:40:19.818Z,10.40
2022-12-20T07:42:49.285Z,7.38
2022-12-20T07:45:16.564Z,10.82
2022-12-20T07:47:44.103Z,9.57
2022-12-20T07:50:11.980Z,9.65
2022-12-20T07:52:39.847Z,9.75
2022-12-20T07:55:08.546Z,9.88
2022-12-20T07:57:44.037Z,10.75
2022-12-20T08:00:11.717Z,11.75
2022-12-20T08:02:46.044Z,12.38
2022-12-20T08:05:13.336Z,11.63
2022-12-20T08:07:41.692Z,10.77
2022-12-20T08:10:10.076Z,12.77
2022-12-20T08:12:37.065Z,11.90
2022-12-20T08:15:04.299Z,13.65
2022-12-20T08:17:31.045Z,12.18
2022-12-20T08:19:57.972Z,12.85
2022-12-20T08:22:24.803Z,12.32
2022-12-20T08:24:51.929Z,12.00
2022-12-20T08:27:18.715Z,12.93
2022-12-20T08:29:45.662Z,13.02
2022-12-20T08:32:14.390Z,12.30
2022-12-20T08:34:41.174Z,11.95
2022-12-20T08:37:14.572Z,12.57
2022-12-20T08:39:41.935Z,12.50
2022-12-20T08:42:08.731Z,13.40
2022-12-20T08:44:35.380Z,11.88
2022-12-20T08:47:02.070Z,13.38
2022-12-20T08:49:29.053Z,13.32
2022-12-20T08:51:55.837Z,13.23
2022-12-20T08:54:22.646Z,12.40
2022-12-20T08:56:49.449Z,13.07
2022-12-20T08:59:19.448Z,12.48
2022-12-20T09:01:46.462Z,12.52
2022-12-20T09:04:13.324Z,13.02
2022-12-20T09:06:39.968Z,11.65
2022-12-20T09:09:07.644Z,12.55
2022-12-20T09:11:34.807Z,12.48
2022-12-20T09:14:01.511Z,11.48
2022-12-20T09:16:30.711Z,12.55
2022-12-20T09:19:04.587Z,13.13
2022-12-20T09:21:32.724Z,13.85
2022-12-20T09:23:59.704Z,12.73
2022-12-20T09:26:26.608Z,12.02
2022-12-20T09:28:54.113Z,12.52
2022-12-20T09:31:23.402Z,13.75
2022-12-20T09:33:50.688Z,12.38
2022-12-20T09:36:22.101Z,13.05
2022-12-20T09:38:49.340Z,12.77
2022-12-20T09:41:41.244Z,11.80
2022-12-20T09:44:25.675Z,12.75
2022-12-20T09:47:03.629Z,13.00
2022-12-20T09:49:37.085Z,11.73
2022-12-20T09:52:25.980Z,11.57
2022-12-20T09:54:58.001Z,10.93
2022-12-20T09:57:55.432Z,11.68
2022-12-20T10:00:22.214Z,11.57
2022-12-20T10:03:09.881Z,12.43
2022-12-20T10:05:41.982Z,12.05
2022-12-20T10:08:42.454Z,12.00
2022-12-20T10:11:43.394Z,11.48
2022-12-20T10:14:40.945Z,12.02
2022-12-20T10:17:25.016Z,10.57
2022-12-20T10:20:14.954Z,10.60
2022-12-20T10:22:47.168Z,10.73
2022-12-20T10:25:24.064Z,11.88
2022-12-20T10:27:54.530Z,10.77
2022-12-20T10:30:24.134Z,11.38
2022-12-20T10:32:53.926Z,10.55
2022-12-20T10:35:38.789Z,11.80
2022-12-20T10:38:09.916Z,10.80
2022-12-20T10:43:43.250Z,11.82
2022-12-20T10:46:10.629Z,10.27
2022-12-20T10:48:42.284Z,10.52
2022-12-20T10:51:15.177Z,10.80
2022-12-20T10:53:58.157Z,9.95
2022-12-20T10:56:36.530Z,10.13
2022-12-20T10:59:18.518Z,10.27
2022-12-20T11:01:47.112Z,9.70
2022-12-20T11:04:35.779Z,10.27
2022-12-20T11:07:14.105Z,9.80
2022-12-20T11:09:53.548Z,9.65
2022-12-20T11:12:20.343Z,10.10
2022-12-20T11:14:49.217Z,9.50
2022-12-20T11:17:33.739Z,11.80
2022-12-20T11:20:16.917Z,10.57
2022-12-20T11:22:43.636Z,9.85
2022-12-20T11:25:31.822Z,9.75
2022-12-20T11:28:26.369Z,10.18
2022-12-20T11:31:06.053Z,9.02
2022-12-20T11:34:00.579Z,9.18
2022-12-20T11:36:49.577Z,10.38
2022-12-20T11:39:37.255Z,9.70
2022-12-20T11:42:29.070Z,9.10
2022-12-20T11:45:14.028Z,8.82
2022-12-20T11:48:17.891Z,9.23
2022-12-20T11:50:56.750Z,8.52
2022-12-20T11:53:28.617Z,8.25
2022-12-20T11:56:02.472Z,9.10
2022-12-20T11:58:55.087Z,8.43
2022-12-20T12:01:27.706Z,8.52
2022-12-20T12:04:09.366Z,8.63
2022-12-20T12:06:43.066Z,9.40
2022-12-20T12:09:34.694Z,9.85
2022-12-20T12:12:10.913Z,8.45
2022-12-20T12:14:50.817Z,8.93
2022-12-20T12:17:25.075Z,8.55
2022-12-20T12:19:57.828Z,8.98
2022-12-20T12:22:33.706Z,9.25
2022-12-20T12:25:03.664Z,9.10
2022-12-20T12:27:30.317Z,9.30
2022-12-20T12:29:58.685Z,8.35
2022-12-20T12:32:35.050Z,9.40
2022-12-20T12:35:26.464Z,9.15
2022-12-20T12:38:21.232Z,8.07
2022-12-20T12:41:00.338Z,8.35
2022-12-20T12:43:46.116Z,8.65
2022-12-20T12:46:35.334Z,8.18
2022-12-20T12:49:10.445Z,8.95
2022-12-20T12:51:39.927Z,8.80
2022-12-20T12:54:09.577Z,8.48
2022-12-20T12:56:48.881Z,9.18
2022-12-20T12:59:47.178Z,9.27
2022-12-20T13:02:13.982Z,8.20
2022-12-20T13:05:11.326Z,8.35
2022-12-20T13:07:40.214Z,9.15
2022-12-20T13:10:10.005Z,8.43
2022-12-20T13:12:36.662Z,8.95
2022-12-20T13:15:21.889Z,8.80
2022-12-20T13:17:51.539Z,8.45
2022-12-20T13:20:19.809Z,8.57
2022-12-20T13:23:07.894Z,8.50
2022-12-20T13:25:38.733Z,8.85
2022-12-20T13:28:23.684Z,9.35
2022-12-20T13:31:02.796Z,8.10
2022-12-20T13:33:44.015Z,8.95
2022-12-20T13:36:10.704Z,9.05
2022-12-20T13:38:39.941Z,8.70
2022-12-20T13:41:35.197Z,8.68
2022-12-20T13:44:41.713Z,9.38
2022-12-20T13:47:30.487Z,10.02
2022-12-20T13:50:00.574Z,8.32
2022-12-20T13:52:30.155Z,9.10
2022-12-20T13:55:15.283Z,9.13
2022-12-20T13:57:43.951Z,8.05
2022-12-20T14:00:25.765Z,8.60
2022-12-20T14:02:53.273Z,8.77
2022-12-20T14:05:40.276Z,8.93
2022-12-20T14:08:18.189Z,8.85
2022-12-20T14:10:44.955Z,8.68
2022-12-20T14:13:29.253Z,9.05
2022-12-20T14:15:58.633Z,8.73
2022-12-20T14:18:26.283Z,7.68
2022-12-20T14:20:58.881Z,9.45
2022-12-20T14:23:31.859Z,9.45
2022-12-20T14:26:03.011Z,9.07
2022-12-20T14:28:37.448Z,9.95
2022-12-20T14:31:05.557Z,9.63
2022-12-20T14:33:37.793Z,9.25
2022-12-20T14:36:16.830Z,9.35
2022-12-20T14:38:46.005Z,8.27
2022-12-20T14:41:31.954Z,9.00
2022-12-20T14:44:03.039Z,9.60
2022-12-20T14:46:31.101Z,9.40
2022-12-20T14:49:20.158Z,9.15
2022-12-20T14:51:49.986Z,9.38
2022-12-20T14:55:05.845Z,10.05
2022-12-20T14:57:27.649Z,11.30
2022-12-20T15:00:13.672Z,9.43
2022-12-20T15:02:51.402Z,8.55
2022-12-20T15:05:33.900Z,9.20
2022-12-20T15:08:33.150Z,9.02
2022-12-20T15:11:09.086Z,8.82
2022-12-20T15:13:36.559Z,9.85
2022-12-20T15:16:18.708Z,9.45
2022-12-20T15:18:46.678Z,10.10
2022-12-20T15:21:22.638Z,9.35
2022-12-20T15:23:51.745Z,10.18
2022-12-20T15:26:21.042Z,10.93
2022-12-20T15:28:48.036Z,10.20
2022-12-20T15:31:16.948Z,10.55
2022-12-20T15:33:44.596Z,10.98
2022-12-20T15:36:19.268Z,12.15
2022-12-20T15:39:11.170Z,11.25
2022-12-20T15:41:34.878Z,11.95
2022-12-20T15:44:06.351Z,11.10
2022-12-20T15:46:33.023Z,11.07
2022-12-20T15:48:59.782Z,11.80
2022-12-20T15:51:37.935Z,12.02
2022-12-20T15:54:06.021Z,12.15
2022-12-20T15:56:35.508Z,11.98
2022-12-20T15:59:17.782Z,12.98
2022-12-20T16:01:49.251Z,12.52
2022-12-20T16:04:23.125Z,12.75
2022-12-20T16:06:53.754Z,10.68
2022-12-20T16:09:21.406Z,11.57
2022-12-20T16:11:48.415Z,11.85
2022-12-20T16:14:21.366Z,12.75
2022-12-20T16:16:50.232Z,11.18
2022-12-20T16:19:17.682Z,11.90
2022-12-20T16:21:48.105Z,11.88
2022-12-20T16:24:21.329Z,13.10
2022-12-20T16:26:50.528Z,12.55
2022-12-20T16:29:17.194Z,11.43
2022-12-20T16:31:43.911Z,13.38
2022-12-20T16:34:14.081Z,13.57
2022-12-20T16:36:40.895Z,12.68
2022-12-20T16:39:10.274Z,13.82
2022-12-20T16:41:38.138Z,13.13
2022-12-20T16:44:04.909Z,12.98
2022-12-20T16:46:33.032Z,12.95
2022-12-20T16:49:00.805Z,13.30
2022-12-20T16:51:31.724Z,13.93
2022-12-20T16:54:18.661Z,13.52
2022-12-20T16:56:52.115Z,14.18
2022-12-20T16:59:21.616Z,14.43
2022-12-20T17:01:50.662Z,14.57
2022-12-20T17:04:20.651Z,15.40
2022-12-20T17:06:49.878Z,14.68
2022-12-20T17:12:00.282Z,13.82
2022-12-20T17:14:26.952Z,14.43
2022-12-20T17:16:53.733Z,14.50
2022-12-20T17:19:20.459Z,14.48
2022-12-20T17:24:29.600Z,13.75
2022-12-20T17:26:56.215Z,12.63
2022-12-20T17:29:22.872Z,13.57
2022-12-20T17:31:50.034Z,12.52
2022-12-20T17:34:19.041Z,12.80
2022-12-20T17:36:46.555Z,12.18
2022-12-20T17:39:20.283Z,13.50
2022-12-20T17:41:47.326Z,12.85
2022-12-20T17:44:19.267Z,12.80
2022-12-20T17:46:45.994Z,13.02
2022-12-20T17:49:13.001Z,15.13
2022-12-20T17:51:39.819Z,13.82
2022-12-20T17:54:06.624Z,14.18
2022-12-20T17:56:34.993Z,12.60
2022-12-20T17:59:04.678Z,12.32
2022-12-20T18:01:33.332Z,13.63
2022-12-20T18:04:04.588Z,12.45
2022-12-20T18:06:33.524Z,12.95
2022-12-20T18:09:00.794Z,11.30
2022-12-20T18:11:28.813Z,11.90
2022-12-20T18:13:57.922Z,11.73
2022-12-20T18:16:29.000Z,11.77
2022-12-20T18:18:56.368Z,12.23
2022-12-20T18:21:24.999Z,11.77
2022-12-20T18:23:52.485Z,11.02
2022-12-20T18:26:23.603Z,11.05
2022-12-20T18:28:51.901Z,11.82
2022-12-20T18:31:20.835Z,12.35
2022-12-20T18:33:53.897Z,11.88
2022-12-20T18:36:29.182Z,12.80
2022-12-20T18:38:58.272Z,11.73
2022-12-20T18:41:27.159Z,12.15
2022-12-20T18:43:56.539Z,11.18
2022-12-20T18:46:23.707Z,11.88
2022-12-20T18:48:51.384Z,12.20
2022-12-20T18:51:23.545Z,12.38
2022-12-20T18:53:51.756Z,11.40
2022-12-20T18:56:21.346Z,11.05
2022-12-20T18:58:48.758Z,11.98
2022-12-20T19:01:18.149Z,12.80
2022-12-20T19:03:45.145Z,12.02
2022-12-20T19:06:12.496Z,12.25
2022-12-20T19:08:40.221Z,12.23
2022-12-20T19:11:15.297Z,12.15
2022-12-20T19:13:42.389Z,10.85
2022-12-20T19:16:13.125Z,12.88
2022-12-20T19:18:41.354Z,12.77
2022-12-20T19:21:12.996Z,12.43
2022-12-20T19:23:41.054Z,12.88
2022-12-20T19:26:10.187Z,13.25
2022-12-20T19:28:36.960Z,11.88
2022-12-20T19:31:20.913Z,11.80
2022-12-20T19:33:48.342Z,11.93
2022-12-20T19:36:26.459Z,12.13
2022-12-20T19:38:58.388Z,12.18
2022-12-20T19:41:27.977Z,12.00
2022-12-20T19:43:54.738Z,12.32
2022-12-20T19:46:28.412Z,12.52
2022-12-20T19:48:56.481Z,12.57
2022-12-20T19:51:23.564Z,13.38
2022-12-20T19:53:51.816Z,11.88
2022-12-20T19:56:20.764Z,11.80
2022-12-20T19:58:47.979Z,13.82
2022-12-20T20:01:15.915Z,13.55
2022-12-20T20:03:42.976Z,12.43
2022-12-20T20:06:09.902Z,14.75
2022-12-20T20:08:36.751Z,14.18
2022-12-20T20:11:09.344Z,12.98
2022-12-20T20:13:36.568Z,12.80
2022-12-20T20:16:06.830Z,12.68
2022-12-20T20:18:35.210Z,13.85
2022-12-20T20:21:09.954Z,13.48
2022-12-20T20:23:37.689Z,14.35
2022-12-20T20:26:10.599Z,13.80
2022-12-20T20:28:44.489Z,13.45
2022-12-20T20:31:16.609Z,13.52
2022-12-20T20:33:43.798Z,13.35
2022-12-20T20:36:13.591Z,13.25
2022-12-20T20:38:40.643Z,13.98
2022-12-20T20:41:07.858Z,13.18
2022-12-20T20:43:38.252Z,12.98
2022-12-20T20:46:09.098Z,13.45
2022-12-20T20:48:36.171Z,12.88
2022-12-20T20:51:03.218Z,13.63
2022-12-20T20:53:33.980Z,13.55
2022-12-20T20:56:02.320Z,12.77
2022-12-20T20:58:29.348Z,13.90
2022-12-20T21:01:00.707Z,14.07
2022-12-20T21:03:28.768Z,13.13
2022-12-20T21:08:42.422Z,13.65
2022-12-20T21:11:09.722Z,12.52
2022-12-20T21:13:36.886Z,12.85
2022-12-20T21:16:08.449Z,13.57
2022-12-20T21:18:35.212Z,13.23
2022-12-20T21:21:09.383Z,13.43
2022-12-20T21:23:36.505Z,13.18
2022-12-20T21:26:03.752Z,12.63
2022-12-20T21:28:31.803Z,12.57
2022-12-20T21:31:03.349Z,12.13
2022-12-20T21:33:30.007Z,12.43
2022-12-20T21:36:04.882Z,12.30
2022-12-20T21:38:31.824Z,12.05
2022-12-20T21:41:02.640Z,12.98
2022-12-20T21:43:29.575Z,11.65
2022-12-20T21:45:56.725Z,12.38
2022-12-20T21:48:23.835Z,12.43
2022-12-20T21:51:04.859Z,12.57
2022-12-20T21:53:32.979Z,10.63
2022-12-20T21:56:00.685Z,13.27
2022-12-20T21:58:29.291Z,12.63
2022-12-20T22:00:57.298Z,12.35
2022-12-20T22:03:24.671Z,12.20
2022-12-20T22:05:53.664Z,12.63
2022-12-20T22:08:21.028Z,11.93
2022-12-20T22:10:49.954Z,12.00
2022-12-20T22:13:16.918Z,12.88
2022-12-20T22:15:43.593Z,12.32
2022-12-20T22:18:10.332Z,11.90
2022-12-20T22:20:37.134Z,13.55
2022-12-20T22:23:04.501Z,11.85
2022-12-20T22:25:31.752Z,12.70
2022-12-20T22:27:58.461Z,13.43
2022-12-20T22:30:25.189Z,12.48
2022-12-20T22:32:51.804Z,12.30
2022-12-20T22:35:22.763Z,12.02
2022-12-20T22:37:50.734Z,12.57
2022-12-20T22:40:18.148Z,12.43
2022-12-20T22:42:44.947Z,13.07
2022-12-20T22:45:12.209Z,13.43
2022-12-20T22:47:40.591Z,11.50
2022-12-20T22:50:10.949Z,12.43
2022-12-20T22:52:37.559Z,13.07
2022-12-20T22:55:04.981Z,12.73
2022-12-20T22:57:32.942Z,12.80
2022-12-20T22:59:59.669Z,12.65
2022-12-20T23:02:27.791Z,12.93
2022-12-20T23:04:54.641Z,12.32
2022-12-20T23:07:21.869Z,12.82
2022-12-20T23:09:49.963Z,13.15
2022-12-20T23:12:35.276Z,12.50
2022-12-20T23:15:20.513Z,12.15
2022-12-20T23:17:47.344Z,12.52
2022-12-20T23:20:32.403Z,13.20
2022-12-20T23:22:59.250Z,13.13
2022-12-20T23:25:26.008Z,13.25
2022-12-20T23:27:53.022Z,12.50
2022-12-20T23:30:22.504Z,13.30
2022-12-20T23:32:49.704Z,13.40
2022-12-20T23:35:18.253Z,13.88
2022-12-20T23:37:48.089Z,13.70
2022-12-20T23:40:16.448Z,14.40
2022-12-20T23:42:43.814Z,13.77
2022-12-20T23:45:10.950Z,12.73
2022-12-20T23:47:37.587Z,13.77
2022-12-20T23:50:04.759Z,13.75
2022-12-20T23:52:31.452Z,13.70
2022-12-20T23:54:58.321Z,14.57
2022-12-20T23:57:25.236Z,13.43
2022-12-20T23:59:51.898Z,15.35
